createdAt,value
2022-08-30T00:02:05.095Z,4.10
2022-08-30T00:04:33.306Z,3.60
2022-08-30T00:07:03.936Z,4.20
2022-08-30T00:09:33.050Z,3.80
2022-08-30T00:12:01.401Z,4.00
2022-08-30T00:14:29.514Z,4.80
2022-08-30T00:16:57.560Z,5.20
2022-08-30T00:19:25.709Z,4.60
2022-08-30T00:21:53.773Z,4.80
2022-08-30T00:24:21.937Z,5.00
2022-08-30T00:26:50.039Z,5.20
2022-08-30T00:29:18.206Z,4.40
2022-08-30T00:31:46.864Z,4.60
2022-08-30T00:34:16.722Z,4.50
2022-08-30T00:36:45.651Z,4.80
2022-08-30T00:39:13.832Z,4.50
2022-08-30T00:41:41.896Z,6.80
2022-08-30T00:44:10.426Z,4.50
2022-08-30T00:46:38.722Z,6.00
2022-08-30T00:49:11.426Z,5.50
2022-08-30T00:51:41.188Z,5.90
2022-08-30T00:54:09.632Z,6.60
2022-08-30T00:56:38.047Z,6.10
2022-08-30T00:59:08.030Z,6.60
2022-08-30T01:01:37.780Z,6.00
2022-08-30T01:04:08.948Z,5.30
2022-08-30T01:06:40.161Z,6.10
2022-08-30T01:09:09.357Z,6.30
2022-08-30T01:11:39.878Z,5.10
2022-08-30T01:14:09.610Z,5.80
2022-08-30T01:16:41.481Z,5.40
2022-08-30T01:19:27.456Z,6.40
2022-08-30T01:22:03.792Z,5.60
2022-08-30T01:24:32.989Z,6.60
2022-08-30T01:27:01.188Z,6.10
2022-08-30T01:29:29.800Z,6.50
2022-08-30T01:31:57.995Z,6.10
2022-08-30T01:34:26.765Z,6.70
2022-08-30T01:36:54.807Z,6.00
2022-08-30T01:39:23.591Z,6.20
2022-08-30T01:41:51.751Z,5.60
2022-08-30T01:44:19.823Z,5.70
2022-08-30T01:46:48.646Z,5.80
2022-08-30T01:49:24.844Z,6.10
2022-08-30T01:52:00.490Z,5.50
2022-08-30T01:54:37.981Z,4.90
2022-08-30T01:57:11.336Z,5.70
2022-08-30T01:59:40.995Z,6.10
2022-08-30T02:02:10.158Z,5.50
2022-08-30T02:04:38.285Z,5.70
2022-08-30T02:07:06.480Z,5.20
2022-08-30T02:09:35.061Z,5.30
2022-08-30T02:12:07.539Z,4.70
2022-08-30T02:14:37.536Z,4.30
2022-08-30T02:17:08.323Z,4.60
2022-08-30T02:19:36.575Z,5.10
2022-08-30T02:22:05.135Z,4.60
2022-08-30T02:24:33.702Z,4.70
2022-08-30T02:27:01.843Z,4.90
2022-08-30T02:29:30.312Z,4.40
2022-08-30T02:31:58.490Z,4.20
2022-08-30T02:34:26.590Z,4.30
2022-08-30T02:36:54.682Z,4.40
2022-08-30T02:39:23.345Z,5.50
2022-08-30T02:41:51.437Z,5.00
2022-08-30T02:44:19.528Z,4.60
2022-08-30T02:46:48.228Z,4.70
2022-08-30T02:52:05.947Z,5.20
2022-08-30T02:54:34.061Z,4.40
2022-08-30T02:57:22.189Z,4.70
2022-08-30T02:59:50.370Z,5.40
2022-08-30T03:02:18.501Z,4.60
2022-08-30T03:04:46.682Z,4.30
2022-08-30T03:07:15.679Z,4.80
2022-08-30T03:09:44.913Z,5.60
2022-08-30T03:12:13.728Z,5.40
2022-08-30T03:14:41.794Z,5.10
2022-08-30T03:17:15.356Z,5.50
2022-08-30T03:19:45.063Z,5.70
2022-08-30T03:22:13.384Z,5.70
2022-08-30T03:24:41.538Z,5.10
2022-08-30T03:27:10.564Z,5.50
2022-08-30T03:29:39.549Z,5.50
2022-08-30T03:32:07.718Z,5.40
2022-08-30T03:34:35.972Z,6.50
2022-08-30T03:37:04.829Z,6.10
2022-08-30T03:39:32.905Z,5.10
2022-08-30T03:42:01.988Z,5.30
2022-08-30T03:44:31.806Z,5.90
2022-08-30T03:46:59.901Z,5.70
2022-08-30T03:49:28.429Z,5.40
2022-08-30T03:51:56.553Z,5.70
2022-08-30T03:54:24.939Z,6.40
2022-08-30T03:56:53.102Z,6.00
2022-08-30T03:59:21.284Z,5.20
2022-08-30T04:01:49.665Z,5.30
2022-08-30T04:04:20.973Z,6.00
2022-08-30T04:06:49.631Z,5.60
2022-08-30T04:09:19.141Z,5.00
2022-08-30T04:11:47.605Z,5.60
2022-08-30T04:14:15.811Z,5.20
2022-08-30T04:16:44.031Z,5.80
2022-08-30T04:19:12.286Z,5.50
2022-08-30T04:21:42.880Z,5.60
2022-08-30T04:24:13.425Z,6.00
2022-08-30T04:26:41.974Z,5.30
2022-08-30T04:29:12.410Z,5.40
2022-08-30T04:31:40.574Z,5.60
2022-08-30T04:34:11.077Z,5.80
2022-08-30T04:36:39.702Z,5.20
2022-08-30T04:39:08.060Z,6.00
2022-08-30T04:41:37.238Z,5.70
2022-08-30T04:44:05.320Z,5.50
2022-08-30T04:46:36.102Z,6.20
2022-08-30T04:49:12.964Z,5.90
2022-08-30T04:51:42.091Z,5.80
2022-08-30T04:54:10.168Z,5.20
2022-08-30T04:56:38.797Z,5.60
2022-08-30T04:59:06.876Z,6.00
2022-08-30T05:01:44.633Z,6.20
2022-08-30T05:04:15.163Z,4.80
2022-08-30T05:06:43.590Z,5.60
2022-08-30T05:09:11.830Z,4.70
2022-08-30T05:11:40.261Z,5.20
2022-08-30T05:14:10.228Z,5.80
2022-08-30T05:16:38.457Z,5.40
2022-08-30T05:19:08.005Z,6.10
2022-08-30T05:21:36.928Z,6.60
2022-08-30T05:24:05.218Z,7.00
2022-08-30T05:26:34.912Z,6.00
2022-08-30T05:29:03.080Z,5.20
2022-08-30T05:31:36.354Z,6.00
2022-08-30T05:34:05.325Z,5.90
2022-08-30T05:36:36.043Z,5.70
2022-08-30T05:39:09.035Z,6.00
2022-08-30T05:41:38.504Z,6.00
2022-08-30T05:44:08.822Z,6.20
2022-08-30T05:46:37.682Z,7.00
2022-08-30T05:49:09.358Z,6.30
2022-08-30T05:51:43.399Z,6.40
2022-08-30T05:54:14.110Z,5.50
2022-08-30T05:56:45.541Z,5.60
2022-08-30T05:59:14.838Z,5.70
2022-08-30T06:01:46.286Z,5.30
2022-08-30T06:04:15.045Z,4.70
2022-08-30T06:06:44.284Z,4.20
2022-08-30T06:09:13.926Z,4.80
2022-08-30T06:11:43.391Z,4.60
2022-08-30T06:14:12.395Z,5.00
2022-08-30T06:16:41.501Z,4.40
2022-08-30T06:19:11.591Z,4.90
2022-08-30T06:21:41.214Z,4.50
2022-08-30T06:24:11.442Z,4.50
2022-08-30T06:26:43.817Z,4.90
2022-08-30T06:29:14.733Z,4.60
2022-08-30T06:31:43.136Z,4.40
2022-08-30T06:34:11.422Z,3.90
2022-08-30T06:36:39.712Z,3.80
2022-08-30T06:39:09.097Z,3.80
2022-08-30T06:41:39.492Z,4.00
2022-08-30T06:44:16.804Z,3.90
2022-08-30T06:46:46.134Z,4.00
2022-08-30T06:49:14.603Z,4.20
2022-08-30T06:51:42.624Z,3.70
2022-08-30T06:54:13.060Z,4.60
2022-08-30T06:56:57.574Z,4.60
2022-08-30T06:59:34.557Z,4.30
2022-08-30T07:04:32.624Z,4.60
2022-08-30T07:07:02.181Z,4.90
2022-08-30T07:09:33.805Z,4.60
2022-08-30T07:12:06.939Z,5.00
2022-08-30T07:14:35.950Z,5.00
2022-08-30T07:17:24.862Z,4.90
2022-08-30T07:19:53.053Z,5.10
2022-08-30T07:22:21.640Z,4.60
2022-08-30T07:24:49.802Z,4.40
2022-08-30T07:27:18.001Z,4.90
2022-08-30T07:29:46.296Z,3.70
2022-08-30T07:32:14.772Z,4.50
2022-08-30T07:34:43.373Z,4.50
2022-08-30T07:37:16.776Z,3.60
2022-08-30T07:39:48.067Z,4.20
2022-08-30T07:42:17.794Z,3.60
2022-08-30T07:44:56.887Z,4.30
2022-08-30T07:47:25.533Z,4.70
2022-08-30T07:49:53.761Z,4.60
2022-08-30T07:52:22.310Z,5.20
2022-08-30T07:54:52.763Z,4.40
2022-08-30T07:57:21.408Z,4.60
2022-08-30T07:59:49.554Z,5.00
2022-08-30T08:02:22.610Z,5.90
2022-08-30T08:05:25.367Z,5.30
2022-08-30T08:07:55.152Z,4.40
2022-08-30T08:10:32.977Z,4.90
2022-08-30T08:13:06.517Z,4.80
2022-08-30T08:15:35.165Z,5.50
2022-08-30T08:18:05.325Z,5.10
2022-08-30T08:20:35.692Z,4.80
2022-08-30T08:23:04.826Z,4.80
2022-08-30T08:25:33.133Z,4.80
2022-08-30T08:28:02.231Z,3.90
2022-08-30T08:30:35.666Z,4.20
2022-08-30T08:33:05.503Z,4.20
2022-08-30T08:35:34.388Z,4.30
2022-08-30T08:38:02.663Z,3.80
2022-08-30T08:40:38.621Z,3.50
2022-08-30T08:43:14.290Z,3.50
2022-08-30T08:48:51.809Z,3.90
2022-08-30T08:51:45.793Z,3.90
2022-08-30T08:54:25.588Z,3.80
2022-08-30T08:56:54.292Z,4.40
2022-08-30T08:59:22.710Z,4.30
2022-08-30T09:01:51.395Z,4.60
2022-08-30T09:04:24.820Z,3.80
2022-08-30T09:07:01.463Z,4.20
2022-08-30T09:09:32.433Z,3.80
2022-08-30T09:12:01.476Z,3.10
2022-08-30T09:14:34.791Z,2.50
2022-08-30T09:17:07.332Z,3.80
2022-08-30T09:19:59.022Z,2.80
2022-08-30T09:22:35.156Z,3.10
2022-08-30T09:25:07.494Z,3.00
2022-08-30T09:27:39.429Z,3.50
2022-08-30T09:30:07.912Z,2.90
2022-08-30T09:33:13.600Z,3.50
2022-08-30T09:35:49.222Z,2.70
2022-08-30T09:38:21.877Z,3.30
2022-08-30T09:40:53.575Z,3.20
2022-08-30T09:43:21.647Z,3.70
2022-08-30T09:46:10.050Z,4.80
2022-08-30T09:48:46.175Z,5.00
2022-08-30T09:51:55.462Z,4.70
2022-08-30T09:54:31.911Z,5.00
2022-08-30T09:57:21.679Z,5.50
2022-08-30T10:00:02.532Z,5.30
2022-08-30T10:02:46.249Z,5.20
2022-08-30T10:05:29.630Z,5.10
2022-08-30T10:08:25.220Z,4.20
2022-08-30T10:11:02.316Z,5.00
2022-08-30T10:13:38.807Z,5.70
2022-08-30T10:16:26.383Z,5.00
2022-08-30T10:19:36.476Z,4.90
2022-08-30T10:22:13.599Z,3.50
2022-08-30T10:24:51.919Z,3.00
2022-08-30T10:27:26.803Z,2.60
2022-08-30T10:30:02.783Z,3.10
2022-08-30T10:32:40.758Z,2.70
2022-08-30T10:35:11.588Z,2.20
2022-08-30T10:38:08.274Z,2.40
2022-08-30T10:40:58.396Z,3.30
2022-08-30T10:43:29.199Z,2.40
2022-08-30T10:46:02.797Z,2.60
2022-08-30T10:48:47.461Z,3.00
2022-08-30T10:51:50.914Z,2.50
2022-08-30T10:54:40.994Z,2.60
2022-08-30T10:57:09.800Z,2.90
2022-08-30T10:59:46.004Z,2.80
2022-08-30T11:02:20.702Z,2.60
2022-08-30T11:05:08.459Z,2.70
2022-08-30T11:08:28.896Z,3.10
2022-08-30T11:11:32.757Z,2.70
2022-08-30T11:14:11.246Z,2.20
2022-08-30T11:16:44.252Z,2.80
2022-08-30T11:19:32.369Z,2.40
2022-08-30T11:25:25.713Z,2.50
2022-08-30T11:27:58.971Z,2.00
2022-08-30T11:30:27.494Z,1.50
2022-08-30T11:33:07.974Z,1.70
2022-08-30T11:35:50.156Z,1.70
2022-08-30T11:38:18.387Z,1.70
2022-08-30T11:40:49.456Z,1.70
2022-08-30T11:43:36.532Z,1.90
2022-08-30T11:46:26.539Z,2.30
2022-08-30T11:49:17.415Z,1.40
2022-08-30T11:52:27.284Z,1.30
2022-08-30T11:55:14.368Z,2.00
2022-08-30T11:57:45.852Z,1.50
2022-08-30T12:00:34.325Z,2.00
2022-08-30T12:03:15.494Z,1.90
2022-08-30T12:06:00.736Z,1.90
2022-08-30T12:08:57.875Z,2.00
2022-08-30T12:12:03.706Z,1.90
2022-08-30T12:14:41.383Z,2.00
2022-08-30T12:17:50.887Z,2.00
2022-08-30T12:20:48.152Z,2.20
2022-08-30T12:23:34.434Z,3.10
2022-08-30T12:26:20.290Z,2.30
2022-08-30T12:28:51.429Z,3.00
2022-08-30T12:31:24.297Z,2.50
2022-08-30T12:34:00.743Z,2.30
2022-08-30T12:36:48.533Z,2.40
2022-08-30T12:39:20.962Z,2.00
2022-08-30T12:41:49.340Z,2.50
2022-08-30T12:44:27.762Z,2.30
2022-08-30T12:47:03.517Z,2.60
2022-08-30T12:49:36.191Z,2.40
2022-08-30T12:52:23.356Z,2.10
2022-08-30T12:54:53.567Z,2.10
2022-08-30T12:57:41.999Z,2.50
2022-08-30T13:00:31.908Z,1.90
2022-08-30T13:03:24.243Z,1.40
2022-08-30T13:05:53.349Z,1.90
2022-08-30T13:08:50.705Z,1.80
2022-08-30T13:11:20.075Z,1.60
2022-08-30T13:13:52.574Z,1.80
2022-08-30T13:16:24.974Z,2.10
2022-08-30T13:19:25.613Z,1.50
2022-08-30T13:21:56.889Z,1.40
2022-08-30T13:24:26.240Z,1.40
2022-08-30T13:27:02.713Z,2.10
2022-08-30T13:29:31.997Z,1.70
2022-08-30T13:32:00.210Z,1.80
2022-08-30T13:34:33.052Z,1.90
2022-08-30T13:37:02.939Z,1.70
2022-08-30T13:39:31.130Z,1.30
2022-08-30T13:42:31.830Z,2.10
2022-08-30T13:44:47.930Z,2.20
2022-08-30T13:47:34.984Z,1.60
2022-08-30T13:50:07.553Z,2.30
2022-08-30T13:52:41.799Z,1.90
2022-08-30T13:55:10.464Z,1.80
2022-08-30T13:57:55.962Z,1.80
2022-08-30T14:00:26.339Z,1.30
2022-08-30T14:02:57.623Z,1.40
2022-08-30T14:08:46.323Z,1.60
2022-08-30T14:11:20.881Z,1.70
2022-08-30T14:16:41.769Z,1.70
2022-08-30T14:19:12.412Z,1.60
2022-08-30T14:21:41.284Z,1.90
2022-08-30T14:24:10.398Z,2.20
2022-08-30T14:26:51.333Z,1.40
2022-08-30T14:29:26.560Z,1.40
2022-08-30T14:31:58.487Z,1.90
2022-08-30T14:34:28.605Z,1.60
2022-08-30T14:36:57.041Z,1.90
2022-08-30T14:39:26.871Z,2.10
2022-08-30T14:41:56.034Z,2.10
2022-08-30T14:44:25.141Z,1.90
2022-08-30T14:46:54.668Z,2.30
2022-08-30T14:49:23.791Z,2.60
2022-08-30T14:51:52.156Z,1.60
2022-08-30T14:54:25.512Z,2.40
2022-08-30T14:56:55.264Z,2.10
2022-08-30T14:59:24.829Z,1.90
2022-08-30T15:01:53.772Z,1.70
2022-08-30T15:04:22.124Z,1.70
2022-08-30T15:06:51.200Z,2.30
2022-08-30T15:09:23.837Z,2.10
2022-08-30T15:11:58.468Z,1.90
2022-08-30T15:14:29.202Z,2.00
2022-08-30T15:16:59.422Z,1.80
2022-08-30T15:19:27.684Z,2.10
2022-08-30T15:22:02.450Z,1.90
2022-08-30T15:24:31.425Z,2.00
2022-08-30T15:27:00.948Z,2.20
2022-08-30T15:29:30.673Z,1.60
2022-08-30T15:32:01.637Z,1.60
2022-08-30T15:34:31.140Z,1.80
2022-08-30T15:36:59.347Z,1.60
2022-08-30T15:39:28.069Z,1.90
2022-08-30T15:42:01.256Z,1.90
2022-08-30T15:44:31.795Z,1.80
2022-08-30T15:47:00.262Z,1.70
2022-08-30T15:49:28.835Z,1.70
2022-08-30T15:52:01.365Z,1.60
2022-08-30T15:54:30.031Z,2.00
2022-08-30T15:57:01.444Z,1.60
2022-08-30T15:59:31.968Z,1.40
2022-08-30T16:02:00.828Z,1.90
2022-08-30T16:04:29.777Z,1.40
2022-08-30T16:06:57.997Z,2.30
2022-08-30T16:09:30.054Z,2.40
2022-08-30T16:12:02.715Z,2.50
2022-08-30T16:14:33.765Z,2.20
2022-08-30T16:17:02.134Z,2.70
2022-08-30T16:19:30.826Z,2.30
2022-08-30T16:22:00.087Z,2.20
2022-08-30T16:24:28.368Z,2.30
2022-08-30T16:26:56.949Z,2.00
2022-08-30T16:29:25.712Z,2.70
2022-08-30T16:32:26.894Z,2.40
2022-08-30T16:36:15.983Z,2.20
2022-08-30T16:40:26.513Z,2.10
2022-08-30T16:57:57.743Z,2.20
2022-08-30T17:02:00.466Z,2.40
2022-08-30T17:14:34.577Z,2.60
2022-08-30T17:25:51.536Z,2.70
2022-08-30T17:30:07.534Z,2.80
2022-08-30T17:37:00.520Z,2.70
2022-08-30T17:57:10.641Z,4.50
2022-08-30T18:00:55.294Z,4.00
2022-08-30T18:13:06.015Z,3.90
2022-08-30T18:17:15.587Z,4.70
2022-08-30T18:25:52.188Z,4.80
2022-08-30T18:30:02.278Z,4.70
2022-08-30T18:45:57.979Z,4.80
2022-08-30T18:50:03.056Z,4.30
2022-08-30T19:02:09.495Z,5.70
2022-08-30T19:14:16.184Z,6.10
2022-08-30T19:39:51.235Z,4.00
2022-08-30T19:43:56.371Z,3.20
2022-08-30T19:47:39.478Z,3.20
2022-08-30T19:55:59.110Z,3.80
2022-08-30T20:00:00.206Z,3.20
2022-08-30T20:15:07.534Z,3.00
2022-08-30T20:18:45.735Z,3.40
2022-08-30T20:30:43.500Z,2.60
2022-08-30T20:34:27.973Z,2.80
2022-08-30T20:38:37.570Z,2.90
2022-08-30T20:41:30.894Z,2.30
2022-08-30T20:45:20.964Z,2.00
2022-08-30T20:49:03.170Z,2.00
2022-08-30T20:52:28.016Z,1.80
2022-08-30T21:09:50.567Z,2.20
2022-08-30T21:13:52.327Z,1.60
2022-08-30T21:17:33.038Z,1.80
2022-08-30T21:21:00.374Z,1.60
2022-08-30T21:27:49.242Z,1.90
2022-08-30T21:50:07.164Z,1.60
2022-08-30T22:05:56.481Z,1.50
2022-08-30T22:09:48.728Z,1.20
2022-08-30T22:13:18.321Z,1.20
2022-08-30T22:34:50.942Z,1.60
2022-08-30T22:38:05.810Z,1.70
2022-08-30T22:41:14.294Z,1.50
2022-08-30T22:44:30.655Z,1.10
2022-08-30T22:48:42.808Z,1.20
2022-08-30T23:08:16.978Z,1.60
2022-08-30T23:12:15.438Z,1.50
2022-08-30T23:26:56.227Z,1.80
2022-08-30T23:30:34.249Z,1.50
2022-08-30T23:33:51.693Z,1.80
2022-08-30T23:37:11.273Z,1.70
2022-08-30T23:40:42.218Z,1.20
2022-08-30T23:53:00.729Z,1.70
2022-08-30T23:57:03.148Z,1.40
